Wetterdaten: Juli 2011
Datum Temp Feuchte Luftdruck Regen Wind Richtung Sonnenschein UV Solar Windben
01.07.2011 11,6 C 91 % 1020,2 hPa 6,2 l/m 1,2 km/h N-NW 5,00 h 2,7 UV-I 280 W/m 7,6 km/h
02.07.2011 11,5 C 84 % 1014,4 hPa 0,4 l/m 8,4 km/h N-NW 1,08 h 1,9 UV-I 171 W/m 18,5 km/h
03.07.2011 11,2 C 94 % 1013,9 hPa 2,2 l/m 6,1 km/h NW 0,00 h 0,9 UV-I 64 W/m 19,3 km/h
04.07.2011 12,6 C 93 % 1016,1 hPa 0,2 l/m 0,8 km/h N-NW 0,00 h 1,2 UV-I 100 W/m 4,4 km/h
05.07.2011 17,6 C 76 % 1013,0 hPa 0,0 l/m 0,1 km/h S-SW 10,25 h 4,0 UV-I 460 W/m 2,0 km/h
06.07.2011 18,9 C 73 % 1008,3 hPa 0,0 l/m 5,1 km/h S 6,67 h 3,2 UV-I 346 W/m 13,3 km/h
07.07.2011 18,8 C 72 % 1008,2 hPa 0,0 l/m 3,3 km/h S-SO 5,33 h 2,8 UV-I 298 W/m 7,2 km/h
08.07.2011 17,2 C 68 % 1011,0 hPa 0,0 l/m 6,9 km/h S-SW 5,83 h 3,3 UV-I 350 W/m 12,5 km/h
09.07.2011 19,4 C 69 % 1014,3 hPa 0,0 l/m 9,4 km/h S-SO 5,83 h 2,9 UV-I 313 W/m 18,5 km/h
10.07.2011 16,8 C 81 % 1017,6 hPa 0,0 l/m 0,1 km/h S 2,75 h 2,5 UV-I 234 W/m 1,6 km/h
11.07.2011 17,0 C 75 % 1018,9 hPa 0,2 l/m 0,8 km/h N-NW 10,00 h 3,4 UV-I 419 W/m 3,6 km/h
12.07.2011 21,5 C 57 % 1012,1 hPa 0,2 l/m 7,7 km/h SO 5,50 h 3,6 UV-I 350 W/m 21,7 km/h
13.07.2011 15,6 C 89 % 1006,5 hPa 1,2 l/m 2,8 km/h S-SW 0,17 h 1,2 UV-I 107 W/m 12,1 km/h
14.07.2011 13,4 C 80 % 1010,7 hPa 1,8 l/m 25,3 km/h S 0,75 h 1,9 UV-I 153 W/m 45,8 km/h
15.07.2011 13,9 C 89 % 1015,8 hPa 7,2 l/m 4,7 km/h S-SW 1,17 h 1,1 UV-I 92 W/m 16,5 km/h
16.07.2011 17,6 C 70 % 1006,6 hPa 0,2 l/m 6,4 km/h S-SO 8,67 h 3,3 UV-I 394 W/m 11,7 km/h
17.07.2011 15,8 C 84 % 998,7 hPa 4,2 l/m 11,3 km/h S 2,00 h 2,2 UV-I 197 W/m 18,5 km/h
18.07.2011 15,5 C 76 % 1001,9 hPa 0,0 l/m 8,3 km/h S 4,83 h 3,0 UV-I 329 W/m 13,3 km/h
19.07.2011 16,8 C 74 % 1004,3 hPa 0,0 l/m 5,3 km/h S 7,32 h 3,1 UV-I 351 W/m 13,7 km/h
20.07.2011 15,7 C 87 % 1007,2 hPa 0,6 l/m 1,6 km/h NW 1,58 h 2,2 UV-I 200 W/m 8,4 km/h
21.07.2011 15,5 C 90 % 1008,2 hPa 5,6 l/m 0,8 km/h NW 2,92 h 2,4 UV-I 215 W/m 5,2 km/h
22.07.2011 13,1 C 78 % 1008,7 hPa 0,0 l/m 6,8 km/h N-NW 2,50 h 2,5 UV-I 221 W/m 19,3 km/h
23.07.2011 12,3 C 80 % 1006,9 hPa 0,2 l/m 8,1 km/h S-SW 2,83 h 2,5 UV-I 240 W/m 22,1 km/h
24.07.2011 10,2 C 93 % 1006,6 hPa 13,2 l/m 19,4 km/h S-SW 0,17 h 1,7 UV-I 122 W/m 33,0 km/h
25.07.2011 14,3 C 80 % 1009,2 hPa 7,2 l/m 1,4 km/h S-SW 7,08 h 3,0 UV-I 348 W/m 4,8 km/h
26.07.2011 15,1 C 92 % 1013,0 hPa 2,4 l/m 0,0 km/h S-SO 0,67 h 2,3 UV-I 198 W/m 0,4 km/h
27.07.2011 16,5 C 87 % 1017,2 hPa 0,2 l/m 0,6 km/h O-SO 4,42 h 2,9 UV-I 297 W/m 4,0 km/h
28.07.2011 18,8 C 75 % 1017,4 hPa 0,0 l/m 1,9 km/h N-NO 11,42 h 3,4 UV-I 438 W/m 10,1 km/h
29.07.2011 15,0 C 83 % 1017,1 hPa 0,0 l/m 8,1 km/h NW 1,83 h 2,6 UV-I 224 W/m 18,5 km/h
30.07.2011 12,4 C 93 % 1015,8 hPa 1,0 l/m 5,8 km/h NW 0,00 h 1,1 UV-I 79 W/m 20,5 km/h
31.07.2011 15,0 C 74 % 1016,0 hPa 0,0 l/m 3,3 km/h N-NW 6,83 h 3,3 UV-I 355 W/m 10,1 km/h
Min-Datum 16.07.11 12.07.11 17.07.11 19 Tage 01.07.11 - - - - 01.07.11
Min-Zeit 04:25 15:45 07:35 - 00:00 - - - - 00:00
Minimum 7,2 C 43 % 996,3 hPa - 0,0 km/h - - - - 0,0 km/h
Max-Datum 12.07.11 20.07.11 01.07.11 24.07.11 14.07.11 - 28.07.11 07.07.11 01.07.11 14.07.11
Max-Zeit 15:25 05:35 00:00 10:00 15:35 - 19:25 13:30 14:25 15:35
Maximum 25,9 C 100 % 1021,2 hPa 13,2 l/m 40,8 km/h
S
- 11,33 h 8,2 UV-I 1255 W/m 62,8 km/h
S-SW
Durchschnitt 15,4 C 81 % 1011,5 hPa #54,4 l/m 5,5 km/h S #125:24 h 2,5 UV-I 256 W/m 13,5 km/h

Durchschnitt Minimum Temp.10,9 C
Durchschnitt Maximum Temp.19,7 C